createdAt,value
2017-11-29T00:00:58.742Z,0
2017-11-29T00:01:59.346Z,0
2017-11-29T00:03:00.012Z,0
2017-11-29T00:04:00.640Z,0
2017-11-29T00:05:01.242Z,0
2017-11-29T00:06:01.876Z,0
2017-11-29T00:07:02.480Z,0
2017-11-29T00:08:03.081Z,0
2017-11-29T00:09:03.684Z,0
2017-11-29T00:10:04.293Z,0
2017-11-29T00:11:04.916Z,0
2017-11-29T00:12:05.544Z,0
2017-11-29T00:13:06.138Z,0
2017-11-29T00:14:06.739Z,0
2017-11-29T00:15:07.345Z,0
2017-11-29T00:16:07.948Z,0
2017-11-29T00:17:08.551Z,0
2017-11-29T00:18:09.159Z,0
2017-11-29T00:19:09.760Z,0
2017-11-29T00:20:10.361Z,0
2017-11-29T00:21:10.970Z,0
2017-11-29T00:22:11.569Z,0
2017-11-29T00:23:12.234Z,0
2017-11-29T00:24:12.862Z,0
2017-11-29T00:25:13.465Z,0
2017-11-29T00:26:14.073Z,0
2017-11-29T00:27:14.705Z,0
2017-11-29T00:28:15.305Z,0
2017-11-29T00:29:15.908Z,0
2017-11-29T00:30:16.543Z,0
2017-11-29T00:31:17.146Z,0
2017-11-29T00:32:17.751Z,0
2017-11-29T00:33:18.356Z,0
2017-11-29T00:34:18.963Z,0
2017-11-29T00:35:19.563Z,0
2017-11-29T00:36:20.170Z,0
2017-11-29T00:37:20.773Z,0
2017-11-29T00:38:21.377Z,0
2017-11-29T00:39:21.984Z,0
2017-11-29T00:40:22.624Z,0
2017-11-29T00:41:23.250Z,0
2017-11-29T00:42:23.854Z,0
2017-11-29T00:43:24.457Z,0
2017-11-29T00:44:25.061Z,0
2017-11-29T00:45:25.666Z,0
2017-11-29T00:46:26.280Z,0
2017-11-29T00:47:26.873Z,0
2017-11-29T00:48:27.532Z,0
2017-11-29T00:49:28.130Z,0
2017-11-29T00:50:28.733Z,0
2017-11-29T00:51:29.334Z,0
2017-11-29T00:52:29.944Z,0
2017-11-29T00:53:30.543Z,0
2017-11-29T00:54:31.146Z,0
2017-11-29T00:55:31.748Z,0
2017-11-29T00:56:32.356Z,0
2017-11-29T00:57:32.990Z,0
2017-11-29T00:58:33.596Z,0
2017-11-29T00:59:34.199Z,0
2017-11-29T01:00:34.808Z,0
2017-11-29T01:01:35.410Z,0
2017-11-29T01:02:36.039Z,0
2017-11-29T01:03:36.643Z,0
2017-11-29T01:04:37.247Z,0
2017-11-29T01:05:37.850Z,0
2017-11-29T01:06:38.452Z,0
2017-11-29T01:07:39.054Z,0
2017-11-29T01:08:39.708Z,0
2017-11-29T01:09:40.310Z,0
2017-11-29T01:10:40.924Z,0
2017-11-29T01:11:41.518Z,0
2017-11-29T01:12:42.119Z,0
2017-11-29T01:13:42.773Z,0
2017-11-29T01:14:43.405Z,0
2017-11-29T01:15:44.008Z,0
2017-11-29T01:16:44.608Z,0
2017-11-29T01:17:45.210Z,0
2017-11-29T01:18:45.814Z,0
2017-11-29T01:19:46.418Z,0
2017-11-29T01:20:47.020Z,0
2017-11-29T01:21:47.622Z,0
2017-11-29T01:22:48.226Z,0
2017-11-29T01:23:48.834Z,0
2017-11-29T01:24:49.470Z,0
2017-11-29T01:25:50.077Z,0
2017-11-29T01:26:50.676Z,0
2017-11-29T01:27:51.279Z,0
2017-11-29T01:28:51.886Z,0
2017-11-29T01:29:52.516Z,0
2017-11-29T01:30:53.118Z,0
2017-11-29T01:31:53.725Z,0
2017-11-29T01:32:54.328Z,0
2017-11-29T01:33:54.931Z,0
2017-11-29T01:34:55.534Z,0
2017-11-29T01:35:56.141Z,0
2017-11-29T01:36:56.742Z,0
2017-11-29T01:37:57.344Z,0
2017-11-29T01:38:57.946Z,0
2017-11-29T01:39:58.579Z,0
2017-11-29T01:40:59.180Z,0
2017-11-29T01:41:59.783Z,0
2017-11-29T01:43:00.384Z,0
2017-11-29T01:44:01.015Z,0
2017-11-29T01:45:01.650Z,0
2017-11-29T01:46:02.292Z,0
2017-11-29T01:47:02.916Z,0
2017-11-29T01:48:03.553Z,0
2017-11-29T01:49:04.151Z,0
2017-11-29T01:50:04.760Z,0
2017-11-29T01:51:05.365Z,0
2017-11-29T01:52:05.964Z,0
2017-11-29T01:53:06.571Z,0
2017-11-29T01:54:07.170Z,0
2017-11-29T01:55:07.771Z,0
2017-11-29T01:56:08.374Z,0
2017-11-29T01:57:08.976Z,0
2017-11-29T01:58:09.585Z,0
2017-11-29T01:59:10.187Z,0
2017-11-29T02:00:10.789Z,0
2017-11-29T02:01:11.389Z,0
2017-11-29T02:02:12.028Z,0
2017-11-29T02:03:12.627Z,0
2017-11-29T02:04:13.260Z,0
2017-11-29T02:05:13.861Z,0
2017-11-29T02:06:14.465Z,0
2017-11-29T02:07:15.073Z,0
2017-11-29T02:08:15.678Z,0
2017-11-29T02:09:16.274Z,0
2017-11-29T02:10:16.887Z,0
2017-11-29T02:11:17.487Z,0
2017-11-29T02:12:18.087Z,0
2017-11-29T02:13:18.698Z,0
2017-11-29T02:14:19.296Z,0
2017-11-29T02:15:19.899Z,0
2017-11-29T02:16:20.507Z,0
2017-11-29T02:17:21.111Z,0
2017-11-29T02:18:21.743Z,0
2017-11-29T02:19:22.377Z,0
2017-11-29T02:20:22.984Z,0
2017-11-29T02:21:23.586Z,0
2017-11-29T02:22:24.218Z,0
2017-11-29T02:23:24.832Z,0
2017-11-29T02:24:25.428Z,0
2017-11-29T02:25:26.027Z,0
2017-11-29T02:26:26.633Z,0
2017-11-29T02:27:27.231Z,0
2017-11-29T02:28:27.836Z,0
2017-11-29T02:29:28.442Z,0
2017-11-29T02:30:29.079Z,0
2017-11-29T02:31:29.715Z,0
2017-11-29T02:32:30.313Z,0
2017-11-29T02:33:30.947Z,0
2017-11-29T02:34:31.549Z,0
2017-11-29T02:35:32.155Z,0
2017-11-29T02:36:32.756Z,0
2017-11-29T02:37:33.389Z,0
2017-11-29T02:38:33.998Z,0
2017-11-29T02:39:34.602Z,0
2017-11-29T02:40:35.235Z,0
2017-11-29T02:41:35.873Z,0
2017-11-29T02:42:36.478Z,0
2017-11-29T02:43:37.084Z,0
2017-11-29T02:44:37.681Z,0
2017-11-29T02:45:38.295Z,0
2017-11-29T02:46:38.886Z,0
2017-11-29T02:47:39.485Z,0
2017-11-29T02:48:40.089Z,0
2017-11-29T02:49:40.693Z,0
2017-11-29T02:50:41.295Z,0
2017-11-29T02:51:41.927Z,0
2017-11-29T02:52:42.528Z,0
2017-11-29T02:53:43.132Z,0
2017-11-29T02:54:43.736Z,0
2017-11-29T02:55:44.344Z,0
2017-11-29T02:56:44.944Z,0
2017-11-29T02:57:45.545Z,0
2017-11-29T02:58:46.149Z,0
2017-11-29T02:59:46.756Z,0
2017-11-29T03:00:47.386Z,0
2017-11-29T03:01:47.987Z,0
2017-11-29T03:02:48.595Z,0
2017-11-29T03:03:49.192Z,0
2017-11-29T03:04:49.796Z,0
2017-11-29T03:05:50.405Z,0
2017-11-29T03:06:51.013Z,0
2017-11-29T03:07:51.653Z,0
2017-11-29T03:08:52.251Z,0
2017-11-29T03:09:52.884Z,0
2017-11-29T03:10:53.492Z,0
2017-11-29T03:11:54.092Z,0
2017-11-29T03:12:54.695Z,0
2017-11-29T03:13:55.299Z,0
2017-11-29T03:14:55.907Z,0
2017-11-29T03:15:56.512Z,0
2017-11-29T03:16:57.117Z,0
2017-11-29T03:17:57.755Z,0
2017-11-29T03:18:58.391Z,0
2017-11-29T03:19:58.993Z,0
2017-11-29T03:20:59.626Z,0
2017-11-29T03:22:00.232Z,0
2017-11-29T03:23:00.833Z,0
2017-11-29T03:24:01.439Z,0
2017-11-29T03:25:02.044Z,0
2017-11-29T03:26:02.650Z,0
2017-11-29T03:27:03.286Z,0
2017-11-29T03:28:03.889Z,0
2017-11-29T03:29:04.499Z,0
2017-11-29T03:30:05.100Z,0
2017-11-29T03:31:05.698Z,0
2017-11-29T03:32:06.306Z,0
2017-11-29T03:33:06.909Z,0
2017-11-29T03:34:07.518Z,0
2017-11-29T03:35:08.117Z,0
2017-11-29T03:36:08.725Z,0
2017-11-29T03:37:09.328Z,0
2017-11-29T03:38:09.937Z,0
2017-11-29T03:39:10.539Z,0
2017-11-29T03:40:11.143Z,0
2017-11-29T03:41:11.743Z,0
2017-11-29T03:42:12.344Z,0
2017-11-29T03:43:12.955Z,0
2017-11-29T03:44:13.554Z,0
2017-11-29T03:45:14.157Z,0
2017-11-29T03:46:14.759Z,0
2017-11-29T03:47:15.369Z,0
2017-11-29T03:48:15.970Z,0
2017-11-29T03:49:16.572Z,0
2017-11-29T03:50:17.173Z,0
2017-11-29T03:51:17.775Z,0
2017-11-29T03:52:18.380Z,0
2017-11-29T03:53:18.987Z,0
2017-11-29T03:54:19.588Z,0
2017-11-29T03:55:20.193Z,0
2017-11-29T03:56:20.796Z,0
2017-11-29T03:57:21.402Z,0
2017-11-29T03:58:22.000Z,0
2017-11-29T03:59:22.602Z,0
2017-11-29T04:00:23.206Z,0
2017-11-29T04:01:23.808Z,0
2017-11-29T04:02:24.411Z,0
2017-11-29T04:03:25.013Z,0
2017-11-29T04:04:25.614Z,0
2017-11-29T04:05:26.222Z,0
2017-11-29T04:06:26.824Z,0
2017-11-29T04:07:27.454Z,0
2017-11-29T04:08:28.057Z,0
2017-11-29T04:09:28.660Z,0
2017-11-29T04:10:29.293Z,0
2017-11-29T04:11:29.898Z,0
2017-11-29T04:12:30.502Z,0
2017-11-29T04:13:31.134Z,0
2017-11-29T04:14:31.766Z,0
2017-11-29T04:15:32.369Z,0
2017-11-29T04:16:32.977Z,0
2017-11-29T04:17:33.611Z,0
2017-11-29T04:18:34.211Z,0
2017-11-29T04:19:34.844Z,0
2017-11-29T04:20:35.453Z,0
2017-11-29T04:21:36.057Z,0
2017-11-29T04:22:36.657Z,0
2017-11-29T04:23:37.258Z,0
2017-11-29T04:24:37.859Z,0
2017-11-29T04:25:38.461Z,0
2017-11-29T04:26:39.069Z,0
2017-11-29T04:27:39.669Z,0
2017-11-29T04:28:40.271Z,0
2017-11-29T04:29:40.879Z,0
2017-11-29T04:30:41.482Z,0
2017-11-29T04:31:42.115Z,0
2017-11-29T04:32:42.753Z,0
2017-11-29T04:33:43.353Z,0
2017-11-29T04:34:43.962Z,0
2017-11-29T04:35:44.601Z,0
2017-11-29T04:36:45.200Z,0
2017-11-29T04:37:45.801Z,0
2017-11-29T04:38:46.402Z,0
2017-11-29T04:39:47.011Z,0
2017-11-29T04:40:47.611Z,0
2017-11-29T04:41:48.217Z,0
2017-11-29T04:42:48.816Z,0
2017-11-29T04:43:49.425Z,0
2017-11-29T04:44:50.025Z,0
2017-11-29T04:45:50.627Z,0
2017-11-29T04:46:51.266Z,0
2017-11-29T04:47:51.899Z,0
2017-11-29T04:48:52.508Z,0
2017-11-29T04:49:53.142Z,0
2017-11-29T04:50:53.740Z,0
2017-11-29T04:51:54.348Z,0
2017-11-29T04:52:54.953Z,0
2017-11-29T04:53:55.585Z,0
2017-11-29T04:54:56.192Z,0
2017-11-29T04:55:56.793Z,0
2017-11-29T04:56:57.393Z,0
2017-11-29T04:57:57.995Z,0
2017-11-29T04:58:58.597Z,0
2017-11-29T04:59:59.227Z,0
2017-11-29T05:00:59.830Z,0
2017-11-29T05:02:00.437Z,0
2017-11-29T05:03:01.040Z,0
2017-11-29T05:04:01.640Z,0
2017-11-29T05:05:02.243Z,0
2017-11-29T05:06:02.853Z,0
2017-11-29T05:07:03.454Z,0
2017-11-29T05:08:04.063Z,0
2017-11-29T05:09:04.663Z,0
2017-11-29T05:10:05.269Z,0
2017-11-29T05:11:05.869Z,0
2017-11-29T05:12:06.471Z,0
2017-11-29T05:13:07.074Z,0
2017-11-29T05:14:07.679Z,0
2017-11-29T05:15:08.281Z,0
2017-11-29T05:16:08.887Z,0
2017-11-29T05:17:09.489Z,0
2017-11-29T05:18:10.118Z,0
2017-11-29T05:19:10.720Z,0
2017-11-29T05:20:11.324Z,0
2017-11-29T05:21:11.927Z,0
2017-11-29T05:22:12.534Z,0
2017-11-29T05:23:13.134Z,0
2017-11-29T05:24:13.743Z,0
2017-11-29T05:25:14.346Z,0
2017-11-29T05:26:14.946Z,0
2017-11-29T05:27:15.546Z,0
2017-11-29T05:28:16.151Z,0
2017-11-29T05:29:16.753Z,0
2017-11-29T05:30:17.354Z,0
2017-11-29T05:31:17.956Z,0
2017-11-29T05:32:18.563Z,0
2017-11-29T05:33:19.160Z,0
2017-11-29T05:34:19.769Z,0
2017-11-29T05:35:20.376Z,0
2017-11-29T05:36:21.006Z,0
2017-11-29T05:37:21.616Z,0
2017-11-29T05:38:22.249Z,0
2017-11-29T05:39:22.852Z,0
2017-11-29T05:40:23.459Z,0
2017-11-29T05:41:24.061Z,0
2017-11-29T05:42:24.662Z,0
2017-11-29T05:43:25.265Z,0
2017-11-29T05:44:25.866Z,0
2017-11-29T05:45:26.468Z,0
2017-11-29T05:46:27.105Z,0
2017-11-29T05:47:27.746Z,0
2017-11-29T05:48:28.339Z,0
2017-11-29T05:49:28.946Z,0
2017-11-29T05:50:29.552Z,0
2017-11-29T05:51:30.161Z,0
2017-11-29T05:52:30.760Z,0
2017-11-29T05:53:31.367Z,0
2017-11-29T05:54:31.968Z,0
2017-11-29T05:55:32.571Z,0
2017-11-29T05:56:33.172Z,0
2017-11-29T05:57:33.774Z,0
2017-11-29T05:58:34.375Z,0
2017-11-29T05:59:34.980Z,0
2017-11-29T06:00:35.583Z,0
2017-11-29T06:01:36.186Z,0
2017-11-29T06:02:36.794Z,0
2017-11-29T06:03:37.393Z,0
2017-11-29T06:04:37.998Z,0
2017-11-29T06:05:38.607Z,0
2017-11-29T06:06:39.210Z,0
2017-11-29T06:07:39.808Z,0
2017-11-29T06:08:40.418Z,0
2017-11-29T06:09:41.029Z,0
2017-11-29T06:10:41.622Z,0
2017-11-29T06:11:42.238Z,0
2017-11-29T06:12:42.830Z,0
2017-11-29T06:13:43.433Z,0
2017-11-29T06:14:44.035Z,0
2017-11-29T06:15:44.644Z,0
2017-11-29T06:16:45.249Z,0
2017-11-29T06:17:45.853Z,0
2017-11-29T06:18:46.457Z,0
2017-11-29T06:19:47.058Z,0
2017-11-29T06:20:47.660Z,0
2017-11-29T06:21:48.264Z,0
2017-11-29T06:22:48.864Z,0
2017-11-29T06:23:49.465Z,0
2017-11-29T06:24:50.067Z,0
2017-11-29T06:25:50.672Z,0
2017-11-29T06:26:51.274Z,0
2017-11-29T06:27:51.900Z,0
2017-11-29T06:28:52.480Z,0
2017-11-29T06:29:53.083Z,0
2017-11-29T06:30:53.693Z,0
2017-11-29T06:31:54.298Z,0
2017-11-29T06:32:54.930Z,0
2017-11-29T06:33:55.530Z,0
2017-11-29T06:34:56.164Z,0
2017-11-29T06:35:56.766Z,0
2017-11-29T06:36:57.365Z,0
2017-11-29T06:37:57.971Z,4
2017-11-29T06:38:58.577Z,0
2017-11-29T06:39:59.179Z,4
2017-11-29T06:40:59.783Z,4
2017-11-29T06:42:00.384Z,4
2017-11-29T06:43:00.987Z,4
2017-11-29T06:44:01.590Z,8
2017-11-29T06:45:02.197Z,8
2017-11-29T06:46:02.794Z,8
2017-11-29T06:47:03.404Z,8
2017-11-29T06:48:04.009Z,8
2017-11-29T06:49:04.607Z,8
2017-11-29T06:50:05.210Z,12
2017-11-29T06:51:05.818Z,12
2017-11-29T06:52:06.419Z,12
2017-11-29T06:53:07.052Z,12
2017-11-29T06:54:07.655Z,16
2017-11-29T06:55:08.263Z,16
2017-11-29T06:56:08.865Z,20
2017-11-29T06:57:09.469Z,20
2017-11-29T06:58:10.101Z,24
2017-11-29T06:59:10.704Z,24
2017-11-29T07:00:11.337Z,24
2017-11-29T07:01:11.971Z,28
2017-11-29T07:02:12.574Z,28
2017-11-29T07:03:13.178Z,28
2017-11-29T07:04:13.781Z,36
2017-11-29T07:05:14.385Z,36
2017-11-29T07:06:14.989Z,40
2017-11-29T07:07:15.626Z,40
2017-11-29T07:08:16.231Z,40
2017-11-29T07:09:16.852Z,40
2017-11-29T07:10:17.445Z,44
2017-11-29T07:11:18.046Z,44
2017-11-29T07:12:18.647Z,44
2017-11-29T07:13:19.250Z,44
2017-11-29T07:14:19.855Z,44
2017-11-29T07:15:20.488Z,44
2017-11-29T07:16:21.096Z,48
2017-11-29T07:17:21.704Z,48
2017-11-29T07:18:22.305Z,52
2017-11-29T07:19:22.906Z,56
2017-11-29T07:20:23.510Z,60
2017-11-29T07:21:24.150Z,64
2017-11-29T07:22:24.759Z,72
2017-11-29T07:23:25.364Z,80
2017-11-29T07:24:25.968Z,88
2017-11-29T07:25:26.572Z,96
2017-11-29T07:26:27.176Z,104
2017-11-29T07:27:27.781Z,112
2017-11-29T07:28:28.387Z,120
2017-11-29T07:29:28.995Z,140
2017-11-29T07:30:29.604Z,148
2017-11-29T07:31:30.209Z,164
2017-11-29T07:32:30.816Z,176
2017-11-29T07:33:31.427Z,184
2017-11-29T07:34:32.030Z,188
2017-11-29T07:35:32.637Z,184
2017-11-29T07:36:33.243Z,176
2017-11-29T07:37:33.883Z,168
2017-11-29T07:38:34.520Z,164
2017-11-29T07:39:35.127Z,156
2017-11-29T07:40:35.763Z,148
2017-11-29T07:41:36.367Z,140
2017-11-29T07:42:36.978Z,136
2017-11-29T07:43:37.586Z,132
2017-11-29T07:44:38.192Z,128
2017-11-29T07:45:38.802Z,124
2017-11-29T07:46:39.401Z,120
2017-11-29T07:47:40.058Z,120
2017-11-29T07:48:40.697Z,120
2017-11-29T07:49:41.295Z,124
2017-11-29T07:50:41.899Z,128
2017-11-29T07:51:42.509Z,136
2017-11-29T07:52:43.162Z,140
2017-11-29T07:53:43.798Z,140
2017-11-29T07:54:44.405Z,140
2017-11-29T07:55:45.016Z,140
2017-11-29T07:56:45.627Z,144
2017-11-29T07:57:46.281Z,144
2017-11-29T07:58:46.891Z,144
2017-11-29T07:59:47.515Z,140
2017-11-29T08:00:48.102Z,136
2017-11-29T08:01:48.704Z,136
2017-11-29T08:02:49.307Z,132
2017-11-29T08:03:49.914Z,132
2017-11-29T08:04:50.517Z,132
2017-11-29T08:05:51.123Z,136
2017-11-29T08:06:51.725Z,140
2017-11-29T08:07:52.331Z,144
2017-11-29T08:08:52.942Z,148
2017-11-29T08:09:53.543Z,152
2017-11-29T08:10:54.156Z,156
2017-11-29T08:11:54.757Z,160
2017-11-29T08:12:55.411Z,164
2017-11-29T08:13:56.022Z,168
2017-11-29T08:14:56.623Z,176
2017-11-29T08:15:57.231Z,180
2017-11-29T08:16:57.836Z,180
2017-11-29T08:17:58.442Z,180
2017-11-29T08:18:59.055Z,184
2017-11-29T08:19:59.658Z,180
2017-11-29T08:21:00.264Z,184
2017-11-29T08:22:00.870Z,180
2017-11-29T08:23:01.477Z,184
2017-11-29T08:24:02.090Z,184
2017-11-29T08:25:02.726Z,184
2017-11-29T08:26:03.338Z,180
2017-11-29T08:27:03.940Z,176
2017-11-29T08:28:04.552Z,176
2017-11-29T08:29:05.157Z,180
2017-11-29T08:30:05.790Z,176
2017-11-29T08:31:06.401Z,172
2017-11-29T08:32:07.012Z,164
2017-11-29T08:33:07.619Z,160
2017-11-29T08:34:08.227Z,156
2017-11-29T08:35:08.835Z,152
2017-11-29T08:36:09.438Z,152
2017-11-29T08:37:10.041Z,156
2017-11-29T08:38:10.648Z,160
2017-11-29T08:39:11.253Z,164
2017-11-29T08:40:11.865Z,172
2017-11-29T08:41:12.483Z,180
2017-11-29T08:42:13.068Z,184
2017-11-29T08:43:13.675Z,188
2017-11-29T08:44:14.287Z,192
2017-11-29T08:45:14.889Z,192
2017-11-29T08:46:15.498Z,192
2017-11-29T08:47:16.135Z,196
2017-11-29T08:48:16.743Z,196
2017-11-29T08:49:17.356Z,200
2017-11-29T08:50:17.966Z,192
2017-11-29T08:51:18.601Z,188
2017-11-29T08:52:19.211Z,184
2017-11-29T08:53:19.820Z,180
2017-11-29T08:54:20.430Z,180
2017-11-29T08:55:21.038Z,176
2017-11-29T08:56:21.644Z,172
2017-11-29T08:57:22.286Z,168
2017-11-29T08:58:22.885Z,172
2017-11-29T08:59:23.496Z,172
2017-11-29T09:00:24.109Z,180
2017-11-29T09:01:24.706Z,180
2017-11-29T09:02:25.312Z,184
2017-11-29T09:03:25.918Z,188
2017-11-29T09:04:26.530Z,192
2017-11-29T09:05:27.136Z,196
2017-11-29T09:06:27.741Z,196
2017-11-29T09:07:28.353Z,200
2017-11-29T09:08:28.956Z,208
2017-11-29T09:09:29.560Z,208
2017-11-29T09:10:30.170Z,216
2017-11-29T09:11:30.774Z,224
2017-11-29T09:12:31.382Z,228
2017-11-29T09:13:31.988Z,232
2017-11-29T09:14:32.593Z,232
2017-11-29T09:15:33.205Z,232
2017-11-29T09:16:33.840Z,228
2017-11-29T09:17:34.477Z,228
2017-11-29T09:18:35.087Z,228
2017-11-29T09:19:35.693Z,232
2017-11-29T09:20:36.300Z,232
2017-11-29T09:21:36.912Z,244
2017-11-29T09:22:37.515Z,244
2017-11-29T09:23:38.126Z,244
2017-11-29T09:24:38.730Z,240
2017-11-29T09:25:39.341Z,232
2017-11-29T09:26:39.944Z,240
2017-11-29T09:27:40.555Z,244
2017-11-29T09:28:41.161Z,248
2017-11-29T09:29:41.768Z,252
2017-11-29T09:30:42.380Z,252
2017-11-29T09:31:42.982Z,248
2017-11-29T09:32:43.594Z,240
2017-11-29T09:33:44.197Z,236
2017-11-29T09:34:44.804Z,236
2017-11-29T09:35:45.413Z,232
2017-11-29T09:36:46.017Z,228
2017-11-29T09:37:46.628Z,232
2017-11-29T09:38:47.232Z,236
2017-11-29T09:39:47.871Z,232
2017-11-29T09:40:48.478Z,232
2017-11-29T09:41:49.087Z,236
2017-11-29T09:42:49.694Z,244
2017-11-29T09:43:50.354Z,248
2017-11-29T09:44:50.962Z,256
2017-11-29T09:45:51.595Z,272
2017-11-29T09:46:52.208Z,284
2017-11-29T09:47:52.816Z,280
2017-11-29T09:48:53.414Z,276
2017-11-29T09:49:54.025Z,276
2017-11-29T09:50:54.636Z,276
2017-11-29T09:51:55.238Z,280
2017-11-29T09:52:55.845Z,280
2017-11-29T09:53:56.492Z,288
2017-11-29T09:54:57.097Z,308
2017-11-29T09:55:57.701Z,324
2017-11-29T09:56:58.310Z,336
2017-11-29T09:57:58.916Z,352
2017-11-29T09:58:59.523Z,356
2017-11-29T10:00:00.129Z,368
2017-11-29T10:01:00.735Z,376
2017-11-29T10:02:01.349Z,380
2017-11-29T10:03:01.953Z,388
2017-11-29T10:04:02.564Z,404
2017-11-29T10:05:03.197Z,420
2017-11-29T10:06:03.803Z,440
2017-11-29T10:07:04.413Z,456
2017-11-29T10:08:05.015Z,468
2017-11-29T10:09:05.630Z,476
2017-11-29T10:10:06.265Z,480
2017-11-29T10:11:06.879Z,480
2017-11-29T10:12:07.491Z,468
2017-11-29T10:13:08.097Z,456
2017-11-29T10:14:08.754Z,444
2017-11-29T10:15:09.368Z,444
2017-11-29T10:16:09.962Z,448
2017-11-29T10:17:10.569Z,456
2017-11-29T10:18:11.183Z,460
2017-11-29T10:19:11.790Z,464
2017-11-29T10:20:12.393Z,456
2017-11-29T10:21:13.004Z,440
2017-11-29T10:22:13.609Z,428
2017-11-29T10:23:14.216Z,428
2017-11-29T10:24:14.881Z,428
2017-11-29T10:25:15.490Z,428
2017-11-29T10:26:16.097Z,432
2017-11-29T10:27:16.708Z,432
2017-11-29T10:28:17.317Z,444
2017-11-29T10:29:17.921Z,452
2017-11-29T10:30:18.527Z,460
2017-11-29T10:31:19.138Z,460
2017-11-29T10:32:19.782Z,460
2017-11-29T10:33:20.392Z,460
2017-11-29T10:34:20.995Z,464
2017-11-29T10:35:21.602Z,468
2017-11-29T10:36:22.209Z,468
2017-11-29T10:37:22.817Z,472
2017-11-29T10:38:23.430Z,476
2017-11-29T10:39:24.033Z,476
2017-11-29T10:40:24.640Z,476
2017-11-29T10:41:25.246Z,468
2017-11-29T10:42:25.860Z,464
2017-11-29T10:43:26.466Z,464
2017-11-29T10:44:27.073Z,456
2017-11-29T10:45:27.679Z,452
2017-11-29T10:46:28.285Z,452
2017-11-29T10:47:28.894Z,448
2017-11-29T10:48:29.506Z,444
2017-11-29T10:49:30.115Z,448
2017-11-29T10:50:30.718Z,448
2017-11-29T10:51:31.325Z,448
2017-11-29T10:52:31.933Z,456
2017-11-29T10:53:32.541Z,460
2017-11-29T10:54:33.147Z,460
2017-11-29T10:55:33.754Z,460
2017-11-29T10:56:34.361Z,456
2017-11-29T10:57:34.968Z,444
2017-11-29T10:58:35.577Z,436
2017-11-29T10:59:36.183Z,436
2017-11-29T11:00:36.790Z,444
2017-11-29T11:01:37.397Z,452
2017-11-29T11:02:38.004Z,464
2017-11-29T11:03:38.616Z,476
2017-11-29T11:04:39.219Z,480
2017-11-29T11:05:39.828Z,488
2017-11-29T11:06:40.434Z,492
2017-11-29T11:07:41.041Z,504
2017-11-29T11:08:41.652Z,512
2017-11-29T11:09:42.255Z,532
2017-11-29T11:10:42.866Z,548
2017-11-29T11:11:43.477Z,556
2017-11-29T11:12:44.076Z,560
2017-11-29T11:13:44.711Z,560
2017-11-29T11:14:45.350Z,572
2017-11-29T11:15:45.963Z,588
2017-11-29T11:16:46.589Z,600
2017-11-29T11:17:47.199Z,616
2017-11-29T11:18:47.804Z,620
2017-11-29T11:19:48.412Z,620
2017-11-29T11:20:49.017Z,624
2017-11-29T11:21:49.622Z,636
2017-11-29T11:22:50.234Z,664
2017-11-29T11:23:50.839Z,692
2017-11-29T11:24:51.458Z,720
2017-11-29T11:25:52.061Z,736
2017-11-29T11:26:52.664Z,736
2017-11-29T11:27:53.271Z,720
2017-11-29T11:28:53.876Z,708
2017-11-29T11:29:54.503Z,696
2017-11-29T11:30:55.091Z,684
2017-11-29T11:31:55.698Z,676
2017-11-29T11:32:56.305Z,676
2017-11-29T11:33:56.910Z,680
2017-11-29T11:34:57.523Z,696
2017-11-29T11:35:58.128Z,712
2017-11-29T11:36:58.736Z,728
2017-11-29T11:37:59.343Z,736
2017-11-29T11:38:59.955Z,744
2017-11-29T11:40:00.560Z,744
2017-11-29T11:41:01.175Z,740
2017-11-29T11:42:01.777Z,740
2017-11-29T11:43:02.386Z,736
2017-11-29T11:44:02.993Z,732
2017-11-29T11:45:03.600Z,728
2017-11-29T11:46:04.212Z,724
2017-11-29T11:47:04.816Z,724
2017-11-29T11:48:05.428Z,720
2017-11-29T11:49:06.036Z,724
2017-11-29T11:50:06.658Z,724
2017-11-29T11:51:07.254Z,736
2017-11-29T11:52:07.859Z,752
2017-11-29T11:53:08.471Z,768
2017-11-29T11:54:09.088Z,796
2017-11-29T11:55:09.682Z,824
2017-11-29T11:56:10.289Z,860
2017-11-29T11:57:10.900Z,892
2017-11-29T11:58:11.507Z,912
2017-11-29T11:59:12.111Z,916
2017-11-29T12:00:12.716Z,908
2017-11-29T12:01:13.328Z,888
2017-11-29T12:02:13.932Z,868
2017-11-29T12:03:14.547Z,848
2017-11-29T12:04:15.150Z,840
2017-11-29T12:05:15.760Z,836
2017-11-29T12:06:16.394Z,844
2017-11-29T12:07:17.007Z,868
2017-11-29T12:08:17.624Z,844
2017-11-29T12:09:18.227Z,820
2017-11-29T12:10:18.888Z,800
2017-11-29T12:11:19.493Z,780
2017-11-29T12:12:20.099Z,772
2017-11-29T12:13:20.707Z,768
2017-11-29T12:14:21.325Z,764
2017-11-29T12:15:21.930Z,768
2017-11-29T12:16:22.536Z,772
2017-11-29T12:17:23.148Z,768
2017-11-29T12:18:23.757Z,764
2017-11-29T12:19:24.369Z,756
2017-11-29T12:20:24.972Z,748
2017-11-29T12:21:25.575Z,736
2017-11-29T12:22:26.189Z,716
2017-11-29T12:23:26.793Z,704
2017-11-29T12:24:27.401Z,704
2017-11-29T12:25:28.012Z,700
2017-11-29T12:26:28.619Z,696
2017-11-29T12:27:29.257Z,684
2017-11-29T12:28:29.866Z,676
2017-11-29T12:29:30.476Z,672
2017-11-29T12:30:31.080Z,668
2017-11-29T12:31:31.688Z,668
2017-11-29T12:32:32.304Z,660
2017-11-29T12:33:32.909Z,656
2017-11-29T12:34:33.512Z,640
2017-11-29T12:35:34.119Z,632
2017-11-29T12:36:34.726Z,620
2017-11-29T12:37:35.331Z,616
2017-11-29T12:38:35.942Z,616
2017-11-29T12:39:36.551Z,612
2017-11-29T12:40:37.157Z,608
2017-11-29T12:41:37.765Z,608
2017-11-29T12:42:38.399Z,608
2017-11-29T12:43:39.005Z,608
2017-11-29T12:44:39.614Z,604
2017-11-29T12:45:40.227Z,596
2017-11-29T12:46:40.862Z,592
2017-11-29T12:47:41.475Z,596
2017-11-29T12:48:42.081Z,596
2017-11-29T12:49:42.691Z,600
2017-11-29T12:50:43.345Z,596
2017-11-29T12:51:43.955Z,588
2017-11-29T12:52:44.566Z,576
2017-11-29T12:53:45.204Z,572
2017-11-29T12:54:45.817Z,564
2017-11-29T12:55:46.472Z,560
2017-11-29T12:56:47.083Z,556
2017-11-29T12:57:47.686Z,556
2017-11-29T12:58:48.302Z,560
2017-11-29T12:59:48.903Z,556
2017-11-29T13:00:49.512Z,552
2017-11-29T13:01:50.122Z,552
2017-11-29T13:02:50.758Z,548
2017-11-29T13:03:51.370Z,544
2017-11-29T13:04:51.975Z,536
2017-11-29T13:05:52.588Z,524
2017-11-29T13:06:53.198Z,512
2017-11-29T13:07:53.799Z,496
2017-11-29T13:08:54.412Z,472
2017-11-29T13:09:55.014Z,456
2017-11-29T13:10:55.629Z,444
2017-11-29T13:11:56.265Z,432
2017-11-29T13:12:56.871Z,420
2017-11-29T13:13:57.479Z,412
2017-11-29T13:14:58.090Z,412
2017-11-29T13:15:58.693Z,412
2017-11-29T13:16:59.304Z,416
2017-11-29T13:17:59.935Z,416
2017-11-29T13:19:00.546Z,420
2017-11-29T13:20:01.154Z,420
2017-11-29T13:21:01.804Z,416
2017-11-29T13:22:02.366Z,412
2017-11-29T13:23:02.973Z,408
2017-11-29T13:24:03.581Z,400
2017-11-29T13:25:04.184Z,400
2017-11-29T13:26:04.819Z,400
2017-11-29T13:27:05.429Z,408
2017-11-29T13:28:06.063Z,416
2017-11-29T13:29:06.669Z,424
2017-11-29T13:30:07.304Z,428
2017-11-29T13:31:07.910Z,440
2017-11-29T13:32:08.517Z,440
2017-11-29T13:33:09.122Z,444
2017-11-29T13:34:09.738Z,448
2017-11-29T13:35:10.338Z,440
2017-11-29T13:36:10.945Z,440
2017-11-29T13:37:11.559Z,440
2017-11-29T13:38:12.156Z,436
2017-11-29T13:39:12.769Z,436
2017-11-29T13:40:13.371Z,428
2017-11-29T13:41:13.982Z,432
2017-11-29T13:42:14.584Z,428
2017-11-29T13:43:15.191Z,424
2017-11-29T13:44:15.807Z,420
2017-11-29T13:45:16.407Z,408
2017-11-29T13:46:17.061Z,400
2017-11-29T13:47:17.667Z,400
2017-11-29T13:48:18.280Z,404
2017-11-29T13:49:18.889Z,412
2017-11-29T13:50:19.541Z,416
2017-11-29T13:51:20.152Z,424
2017-11-29T13:52:20.768Z,432
2017-11-29T13:53:21.372Z,436
2017-11-29T13:54:21.980Z,436
2017-11-29T13:55:22.595Z,428
2017-11-29T13:56:23.201Z,428
2017-11-29T13:57:23.820Z,424
2017-11-29T13:58:24.423Z,408
2017-11-29T13:59:25.058Z,392
2017-11-29T14:00:25.666Z,376
2017-11-29T14:01:26.272Z,368
2017-11-29T14:02:26.910Z,360
2017-11-29T14:03:27.520Z,352
2017-11-29T14:04:28.132Z,348
2017-11-29T14:05:28.771Z,348
2017-11-29T14:06:29.377Z,344
2017-11-29T14:07:29.989Z,340
2017-11-29T14:08:30.628Z,344
2017-11-29T14:09:31.237Z,344
2017-11-29T14:10:31.876Z,336
2017-11-29T14:11:32.489Z,340
2017-11-29T14:12:33.094Z,348
2017-11-29T14:13:33.704Z,360
2017-11-29T14:14:34.313Z,376
2017-11-29T14:15:34.923Z,392
2017-11-29T14:16:35.584Z,420
2017-11-29T14:17:36.194Z,448
2017-11-29T14:18:36.802Z,476
2017-11-29T14:19:37.445Z,500
2017-11-29T14:20:38.052Z,524
2017-11-29T14:21:38.662Z,516
2017-11-29T14:22:39.269Z,500
2017-11-29T14:23:39.877Z,468
2017-11-29T14:24:40.487Z,424